createdAt,value
2023-02-01T00:00:01.855Z,100.00
2023-02-01T00:03:06.611Z,100.00
2023-02-01T00:06:09.805Z,100.00
2023-02-01T00:09:12.791Z,100.00
2023-02-01T00:12:15.808Z,100.00
2023-02-01T00:15:19.145Z,100.00
2023-02-01T00:18:22.088Z,100.00
2023-02-01T00:21:24.936Z,100.00
2023-02-01T00:24:28.219Z,100.00
2023-02-01T00:27:30.765Z,100.00
2023-02-01T00:30:33.858Z,100.00
2023-02-01T00:33:36.599Z,100.00
2023-02-01T00:36:39.887Z,100.00
2023-02-01T00:39:42.904Z,100.00
2023-02-01T00:42:45.810Z,100.00
2023-02-01T00:45:48.418Z,100.00
2023-02-01T00:48:52.098Z,100.00
2023-02-01T00:51:54.805Z,100.00
2023-02-01T00:54:57.723Z,100.00
2023-02-01T00:58:00.802Z,100.00
2023-02-01T01:01:05.247Z,100.00
2023-02-01T01:04:08.093Z,100.00
2023-02-01T01:07:11.094Z,100.00
2023-02-01T01:10:13.734Z,100.00
2023-02-01T01:13:17.068Z,100.00
2023-02-01T01:16:21.777Z,100.00
2023-02-01T01:19:24.669Z,100.00
2023-02-01T01:22:27.272Z,100.00
2023-02-01T01:25:30.596Z,100.00
2023-02-01T01:28:33.482Z,100.00
2023-02-01T01:31:36.503Z,100.00
2023-02-01T01:34:39.324Z,100.00
2023-02-01T01:37:42.334Z,100.00
2023-02-01T01:40:50.807Z,100.00
2023-02-01T01:43:58.249Z,100.00
2023-02-01T01:47:01.602Z,100.00
2023-02-01T01:50:08.819Z,100.00
2023-02-01T01:53:14.452Z,100.00
2023-02-01T01:56:18.111Z,100.00
2023-02-01T01:59:22.988Z,100.00
2023-02-01T02:02:25.924Z,100.00
2023-02-01T02:05:30.211Z,100.00
2023-02-01T02:08:34.462Z,100.00
2023-02-01T02:11:37.560Z,100.00
2023-02-01T02:14:40.564Z,100.00
2023-02-01T02:17:53.717Z,100.00
2023-02-01T02:21:38.669Z,100.00
2023-02-01T02:25:02.834Z,100.00
2023-02-01T02:28:36.954Z,100.00
2023-02-01T02:31:48.636Z,100.00
2023-02-01T02:35:07.713Z,100.00
2023-02-01T02:38:19.087Z,100.00
2023-02-01T02:42:07.907Z,100.00
2023-02-01T02:45:34.981Z,100.00
2023-02-01T02:48:40.778Z,100.00
2023-02-01T02:52:11.409Z,100.00
2023-02-01T02:55:15.778Z,100.00
2023-02-01T02:58:39.586Z,100.00
2023-02-01T03:02:01.964Z,100.00
2023-02-01T03:05:04.838Z,100.00
2023-02-01T03:08:17.224Z,100.00
2023-02-01T03:11:21.381Z,100.00
2023-02-01T03:14:30.048Z,100.00
2023-02-01T03:17:38.755Z,100.00
2023-02-01T03:20:47.743Z,100.00
2023-02-01T03:23:52.345Z,100.00
2023-02-01T03:26:58.575Z,100.00
2023-02-01T03:30:22.509Z,100.00
2023-02-01T03:33:27.798Z,100.00
2023-02-01T03:36:47.700Z,100.00
2023-02-01T03:40:06.595Z,100.00
2023-02-01T03:43:13.669Z,100.00
2023-02-01T03:46:25.308Z,100.00
2023-02-01T03:49:35.892Z,100.00
2023-02-01T03:52:39.387Z,100.00
2023-02-01T03:55:42.978Z,100.00
2023-02-01T03:58:59.645Z,100.00
2023-02-01T04:02:02.679Z,100.00
2023-02-01T04:05:05.702Z,100.00
2023-02-01T04:08:09.310Z,100.00
2023-02-01T04:11:12.213Z,100.00
2023-02-01T04:14:14.991Z,100.00
2023-02-01T04:17:17.917Z,100.00
2023-02-01T04:20:20.834Z,100.00
2023-02-01T04:23:23.900Z,100.00
2023-02-01T04:26:26.761Z,100.00
2023-02-01T04:29:29.785Z,100.00
2023-02-01T04:32:32.360Z,100.00
2023-02-01T04:35:35.285Z,100.00
2023-02-01T04:38:37.953Z,100.00
2023-02-01T04:41:40.883Z,100.00
2023-02-01T04:44:43.960Z,100.00
2023-02-01T04:47:46.928Z,100.00
2023-02-01T04:50:49.927Z,100.00
2023-02-01T04:53:52.913Z,100.00
2023-02-01T04:56:55.445Z,100.00
2023-02-01T04:59:58.499Z,100.00
2023-02-01T05:03:01.319Z,100.00
2023-02-01T05:06:05.813Z,100.00
2023-02-01T05:09:08.416Z,100.00
2023-02-01T05:12:30.510Z,100.00
2023-02-01T05:15:33.084Z,100.00
2023-02-01T05:18:36.087Z,100.00
2023-02-01T05:21:38.736Z,100.00
2023-02-01T05:24:43.657Z,100.00
2023-02-01T05:27:46.360Z,100.00
2023-02-01T05:30:49.255Z,100.00
2023-02-01T05:33:52.115Z,100.00
2023-02-01T05:36:55.002Z,100.00
2023-02-01T05:39:57.765Z,100.00
2023-02-01T05:43:00.693Z,100.00
2023-02-01T05:46:03.623Z,100.00
2023-02-01T05:49:06.581Z,100.00
2023-02-01T05:52:09.207Z,100.00
2023-02-01T05:55:12.006Z,100.00
2023-02-01T05:58:14.711Z,100.00
2023-02-01T06:01:17.661Z,100.00
2023-02-01T06:04:20.471Z,100.00
2023-02-01T06:07:23.144Z,100.00
2023-02-01T06:10:26.330Z,100.00
2023-02-01T06:13:29.558Z,100.00
2023-02-01T06:16:32.664Z,100.00
2023-02-01T06:19:35.424Z,100.00
2023-02-01T06:22:38.660Z,100.00
2023-02-01T06:25:41.255Z,100.00
2023-02-01T06:28:44.164Z,100.00
2023-02-01T06:31:46.819Z,100.00
2023-02-01T06:34:49.706Z,100.00
2023-02-01T06:37:52.319Z,100.00
2023-02-01T06:40:57.075Z,100.00
2023-02-01T06:43:59.748Z,100.00
2023-02-01T06:47:06.195Z,100.00
2023-02-01T06:50:10.459Z,100.00
2023-02-01T06:53:13.374Z,100.00
2023-02-01T06:56:15.981Z,100.00
2023-02-01T06:59:18.936Z,100.00
2023-02-01T07:02:21.735Z,100.00
2023-02-01T07:05:24.616Z,100.00
2023-02-01T07:08:32.186Z,100.00
2023-02-01T07:11:35.273Z,100.00
2023-02-01T07:14:37.931Z,100.00
2023-02-01T07:17:40.858Z,100.00
2023-02-01T07:20:43.948Z,100.00
2023-02-01T07:23:47.401Z,100.00
2023-02-01T07:26:51.991Z,99.83
2023-02-01T07:29:56.580Z,98.53
2023-02-01T07:33:02.203Z,98.22
2023-02-01T07:36:07.835Z,96.41
2023-02-01T07:39:10.787Z,96.29
2023-02-01T07:42:13.731Z,94.82
2023-02-01T07:45:21.332Z,93.42
2023-02-01T07:48:25.734Z,91.62
2023-02-01T07:51:28.665Z,90.70
2023-02-01T07:54:31.616Z,89.66
2023-02-01T07:57:34.187Z,88.04
2023-02-01T08:00:55.941Z,87.76
2023-02-01T08:04:04.013Z,86.85
2023-02-01T08:07:06.692Z,86.47
2023-02-01T08:10:12.203Z,87.21
2023-02-01T08:13:15.677Z,87.96
2023-02-01T08:16:20.421Z,89.69
2023-02-01T08:19:23.014Z,89.30
2023-02-01T08:22:26.051Z,91.10
2023-02-01T08:25:28.668Z,90.91
2023-02-01T08:28:31.886Z,89.91
2023-02-01T08:31:34.677Z,90.95
2023-02-01T08:34:37.739Z,89.88
2023-02-01T08:37:40.389Z,90.15
2023-02-01T08:40:43.424Z,90.09
2023-02-01T08:43:46.847Z,89.85
2023-02-01T08:46:52.401Z,89.41
2023-02-01T08:49:55.424Z,88.52
2023-02-01T08:52:58.327Z,88.71
2023-02-01T08:56:01.760Z,89.14
2023-02-01T08:59:04.723Z,89.28
2023-02-01T09:02:13.068Z,87.21
2023-02-01T09:05:17.437Z,86.40
2023-02-01T09:08:21.175Z,85.22
2023-02-01T09:11:24.093Z,85.59
2023-02-01T09:14:26.862Z,84.72
2023-02-01T09:17:30.785Z,82.88
2023-02-01T09:20:33.604Z,80.37
2023-02-01T09:23:36.629Z,80.32
2023-02-01T09:26:39.719Z,79.81
2023-02-01T09:29:42.771Z,77.90
2023-02-01T09:32:45.760Z,77.36
2023-02-01T09:35:49.148Z,77.83
2023-02-01T09:38:53.425Z,80.62
2023-02-01T09:42:03.611Z,82.91
2023-02-01T09:45:25.387Z,86.67
2023-02-01T09:48:38.690Z,89.65
2023-02-01T09:51:47.714Z,91.90
2023-02-01T09:55:05.617Z,90.98
2023-02-01T09:58:36.016Z,91.75
2023-02-01T10:01:38.966Z,90.89
2023-02-01T10:04:41.893Z,89.51
2023-02-01T10:07:59.557Z,87.18
2023-02-01T10:11:26.154Z,85.54
2023-02-01T10:14:43.766Z,85.01
2023-02-01T10:17:59.321Z,85.88
2023-02-01T10:21:40.752Z,86.59
2023-02-01T10:24:48.775Z,86.59
2023-02-01T10:27:51.502Z,84.87
2023-02-01T10:30:59.505Z,86.85
2023-02-01T10:34:15.046Z,86.02
2023-02-01T10:37:28.495Z,85.44
2023-02-01T10:40:31.340Z,84.90
2023-02-01T10:43:35.020Z,85.41
2023-02-01T10:46:37.893Z,85.03
2023-02-01T10:49:52.579Z,85.81
2023-02-01T10:53:07.820Z,84.45
2023-02-01T10:56:12.283Z,86.01
2023-02-01T10:59:21.485Z,85.82
2023-02-01T11:02:33.829Z,84.26
2023-02-01T11:05:47.635Z,84.28
2023-02-01T11:08:53.858Z,83.53
2023-02-01T11:11:59.359Z,83.75
2023-02-01T11:15:20.095Z,82.76
2023-02-01T11:18:31.827Z,81.69
2023-02-01T11:21:35.370Z,80.34
2023-02-01T11:24:40.153Z,81.38
2023-02-01T11:27:54.450Z,84.27
2023-02-01T11:31:02.782Z,86.48
2023-02-01T11:34:20.654Z,90.20
2023-02-01T11:37:37.246Z,93.12
2023-02-01T11:40:40.144Z,99.19
2023-02-01T11:43:55.060Z,100.00
2023-02-01T11:47:33.847Z,100.00
2023-02-01T11:51:01.347Z,100.00
2023-02-01T11:54:14.332Z,100.00
2023-02-01T11:57:33.921Z,100.00
2023-02-01T12:00:46.138Z,100.00
2023-02-01T12:04:14.006Z,100.00
2023-02-01T12:07:49.444Z,100.00
2023-02-01T12:10:59.662Z,100.00
2023-02-01T12:14:20.367Z,100.00
2023-02-01T12:18:02.347Z,100.00
2023-02-01T12:21:19.764Z,100.00
2023-02-01T12:25:01.700Z,100.00
2023-02-01T12:28:30.815Z,100.00
2023-02-01T12:31:55.050Z,100.00
2023-02-01T12:35:38.933Z,100.00
2023-02-01T12:39:15.131Z,100.00
2023-02-01T12:42:24.815Z,100.00
2023-02-01T12:45:53.308Z,100.00
2023-02-01T12:48:56.019Z,100.00
2023-02-01T12:52:06.531Z,100.00
2023-02-01T12:55:16.616Z,100.00
2023-02-01T12:58:36.470Z,100.00
2023-02-01T13:01:45.864Z,100.00
2023-02-01T13:04:54.823Z,100.00
2023-02-01T13:08:12.084Z,100.00
2023-02-01T13:11:41.398Z,100.00
2023-02-01T13:15:05.879Z,100.00
2023-02-01T13:18:18.145Z,100.00
2023-02-01T13:21:32.574Z,100.00
2023-02-01T13:24:49.299Z,100.00
2023-02-01T13:27:56.124Z,100.00
2023-02-01T13:31:11.060Z,100.00
2023-02-01T13:34:41.759Z,100.00
2023-02-01T13:38:06.252Z,100.00
2023-02-01T13:41:28.918Z,100.00
2023-02-01T13:44:34.248Z,100.00
2023-02-01T13:47:43.217Z,100.00
2023-02-01T13:50:53.016Z,100.00
2023-02-01T13:53:55.847Z,100.00
2023-02-01T13:57:01.275Z,100.00
2023-02-01T14:00:32.059Z,100.00
2023-02-01T14:03:52.282Z,100.00
2023-02-01T14:06:58.165Z,100.00
2023-02-01T14:10:39.260Z,100.00
2023-02-01T14:13:42.646Z,100.00
2023-02-01T14:17:11.371Z,100.00
2023-02-01T14:20:44.876Z,100.00
2023-02-01T14:23:53.866Z,100.00
2023-02-01T14:27:23.526Z,100.00
2023-02-01T14:30:26.638Z,100.00
2023-02-01T14:33:29.643Z,100.00
2023-02-01T14:36:44.174Z,100.00
2023-02-01T14:39:47.561Z,100.00
2023-02-01T14:42:53.503Z,100.00
2023-02-01T14:45:56.132Z,100.00
2023-02-01T14:48:59.128Z,100.00
2023-02-01T14:52:07.236Z,100.00
2023-02-01T14:55:19.708Z,100.00
2023-02-01T14:58:40.974Z,100.00
2023-02-01T15:01:57.458Z,100.00
2023-02-01T15:05:00.001Z,100.00
2023-02-01T15:08:14.889Z,100.00
2023-02-01T15:11:17.656Z,100.00
2023-02-01T15:14:20.640Z,100.00
2023-02-01T15:17:26.474Z,100.00
2023-02-01T15:20:32.314Z,100.00
2023-02-01T15:23:37.038Z,100.00
2023-02-01T15:26:40.412Z,100.00
2023-02-01T15:29:43.148Z,100.00
2023-02-01T15:32:46.697Z,100.00
2023-02-01T15:35:51.639Z,100.00
2023-02-01T15:39:19.493Z,100.00
2023-02-01T15:42:22.766Z,100.00
2023-02-01T15:45:33.174Z,100.00
2023-02-01T15:48:51.899Z,100.00
2023-02-01T15:51:56.330Z,100.00
2023-02-01T15:55:03.434Z,100.00
2023-02-01T15:58:10.133Z,100.00
2023-02-01T16:01:14.748Z,100.00
2023-02-01T16:04:26.325Z,100.00
2023-02-01T16:07:32.098Z,100.00
2023-02-01T16:10:41.479Z,100.00
2023-02-01T16:13:44.085Z,100.00
2023-02-01T16:16:47.108Z,100.00
2023-02-01T16:19:49.703Z,100.00
2023-02-01T16:22:52.633Z,100.00
2023-02-01T16:25:55.149Z,100.00
2023-02-01T16:28:59.371Z,100.00
2023-02-01T16:32:02.225Z,100.00
2023-02-01T16:35:12.028Z,100.00
2023-02-01T16:38:19.468Z,100.00
2023-02-01T16:41:24.200Z,100.00
2023-02-01T16:44:26.801Z,100.00
2023-02-01T16:47:31.021Z,100.00
2023-02-01T16:50:34.627Z,100.00
2023-02-01T16:53:53.178Z,100.00
2023-02-01T16:56:56.662Z,100.00
2023-02-01T17:00:08.739Z,100.00
2023-02-01T17:03:20.072Z,100.00
2023-02-01T17:06:26.218Z,100.00
2023-02-01T17:09:28.861Z,100.00
2023-02-01T17:12:32.830Z,100.00
2023-02-01T17:15:36.821Z,100.00
2023-02-01T17:18:40.133Z,100.00
2023-02-01T17:21:47.269Z,100.00
2023-02-01T17:24:50.895Z,100.00
2023-02-01T17:27:54.734Z,100.00
2023-02-01T17:30:59.079Z,100.00
2023-02-01T17:34:01.768Z,100.00
2023-02-01T17:37:36.939Z,100.00
2023-02-01T17:40:41.183Z,100.00
2023-02-01T17:43:44.286Z,100.00
2023-02-01T17:46:46.902Z,100.00
2023-02-01T17:49:56.314Z,100.00
2023-02-01T17:52:59.680Z,100.00
2023-02-01T17:56:02.683Z,100.00
2023-02-01T17:59:05.390Z,100.00
2023-02-01T18:02:19.113Z,100.00
2023-02-01T18:05:40.646Z,100.00
2023-02-01T18:08:44.073Z,100.00
2023-02-01T18:11:49.220Z,100.00
2023-02-01T18:14:51.858Z,98.73
2023-02-01T18:17:55.096Z,98.77
2023-02-01T18:20:58.996Z,96.42
2023-02-01T18:24:02.382Z,96.33
2023-02-01T18:27:05.232Z,95.15
2023-02-01T18:30:09.910Z,93.53
2023-02-01T18:33:15.965Z,93.02
2023-02-01T18:36:19.124Z,93.57
2023-02-01T18:39:21.899Z,94.18
2023-02-01T18:42:44.310Z,93.94
2023-02-01T18:45:48.151Z,94.26
2023-02-01T18:48:50.910Z,94.07
2023-02-01T18:51:54.076Z,94.33
2023-02-01T18:55:00.081Z,95.95
2023-02-01T18:58:06.588Z,97.17
2023-02-01T19:01:19.998Z,97.50
2023-02-01T19:04:25.215Z,97.30
2023-02-01T19:07:29.974Z,97.17
2023-02-01T19:10:34.376Z,96.49
2023-02-01T19:13:38.889Z,96.85
2023-02-01T19:16:42.045Z,98.49
2023-02-01T19:19:45.845Z,97.88
2023-02-01T19:22:49.607Z,97.26
2023-02-01T19:25:52.408Z,95.08
2023-02-01T19:28:58.317Z,93.50
2023-02-01T19:32:02.197Z,92.44
2023-02-01T19:35:06.412Z,91.71
2023-02-01T19:38:11.382Z,92.39
2023-02-01T19:41:14.591Z,93.48
2023-02-01T19:44:17.887Z,91.25
2023-02-01T19:47:20.750Z,90.49
2023-02-01T19:50:23.731Z,91.40
2023-02-01T19:53:28.343Z,90.10
2023-02-01T19:56:31.193Z,89.47
2023-02-01T19:59:34.427Z,89.24
2023-02-01T20:02:36.697Z,89.33
2023-02-01T20:05:39.894Z,88.66
2023-02-01T20:08:42.807Z,88.51
2023-02-01T20:11:48.426Z,88.95
2023-02-01T20:14:51.276Z,89.74
2023-02-01T20:17:55.796Z,90.36
2023-02-01T20:20:59.083Z,90.47
2023-02-01T20:24:02.770Z,90.42
2023-02-01T20:27:10.156Z,91.41
2023-02-01T20:30:19.948Z,92.73
2023-02-01T20:33:23.007Z,92.87
2023-02-01T20:36:27.808Z,94.18
2023-02-01T20:39:30.400Z,95.31
2023-02-01T20:42:34.599Z,100.00
2023-02-01T20:45:41.678Z,100.00
2023-02-01T20:48:46.807Z,100.00
2023-02-01T20:51:49.862Z,100.00
2023-02-01T20:54:53.112Z,100.00
2023-02-01T20:57:55.977Z,100.00
2023-02-01T21:00:59.107Z,100.00
2023-02-01T21:04:01.933Z,100.00
2023-02-01T21:07:04.789Z,100.00
2023-02-01T21:10:08.250Z,100.00
2023-02-01T21:13:11.300Z,100.00
2023-02-01T21:16:14.582Z,100.00
2023-02-01T21:19:18.000Z,100.00
2023-02-01T21:22:21.171Z,100.00
2023-02-01T21:25:24.532Z,100.00
2023-02-01T21:28:27.336Z,100.00
2023-02-01T21:31:30.428Z,100.00
2023-02-01T21:34:33.585Z,100.00
2023-02-01T21:37:36.407Z,100.00
2023-02-01T21:40:39.004Z,100.00
2023-02-01T21:43:41.852Z,100.00
2023-02-01T21:46:44.914Z,100.00
2023-02-01T21:49:49.378Z,100.00
2023-02-01T21:52:52.159Z,100.00
2023-02-01T21:55:54.964Z,100.00
2023-02-01T21:58:57.461Z,100.00
2023-02-01T22:02:00.288Z,100.00
2023-02-01T22:05:05.341Z,100.00
2023-02-01T22:08:08.189Z,100.00
2023-02-01T22:11:11.152Z,100.00
2023-02-01T22:14:14.945Z,100.00
2023-02-01T22:17:17.860Z,100.00
2023-02-01T22:20:20.521Z,100.00
2023-02-01T22:23:27.607Z,100.00
2023-02-01T22:26:30.173Z,100.00
2023-02-01T22:29:34.969Z,100.00
2023-02-01T22:32:37.874Z,100.00
2023-02-01T22:35:40.936Z,100.00
2023-02-01T22:38:44.764Z,100.00
2023-02-01T22:41:47.672Z,100.00
2023-02-01T22:44:50.282Z,100.00
2023-02-01T22:47:53.245Z,100.00
2023-02-01T22:51:00.012Z,100.00
2023-02-01T22:54:03.212Z,100.00
2023-02-01T22:57:08.051Z,100.00
2023-02-01T23:00:11.923Z,100.00
2023-02-01T23:03:15.015Z,100.00
2023-02-01T23:06:18.675Z,100.00
2023-02-01T23:09:25.186Z,100.00
2023-02-01T23:12:28.605Z,100.00
2023-02-01T23:15:31.313Z,100.00
2023-02-01T23:18:34.484Z,100.00
2023-02-01T23:21:37.304Z,100.00
2023-02-01T23:24:40.161Z,100.00
2023-02-01T23:27:43.858Z,100.00
2023-02-01T23:30:46.698Z,100.00
2023-02-01T23:33:49.884Z,100.00
2023-02-01T23:36:52.714Z,100.00
2023-02-01T23:39:55.417Z,100.00
2023-02-01T23:43:16.756Z,100.00
2023-02-01T23:46:19.865Z,100.00
2023-02-01T23:49:22.896Z,100.00
2023-02-01T23:52:25.493Z,100.00
2023-02-01T23:55:28.770Z,100.00
2023-02-01T23:58:31.814Z,100.00
